sensor_id;sensor_type;location;lat;lon;timestamp;pressure;altitude;pressure_sealevel;temperature;humidity
54194;BME280;40102;50.906;6.972;2023-03-20T00:03:43;101282.81;;;11.59;73.62
54194;BME280;40102;50.906;6.972;2023-03-20T00:08:46;101288.25;;;11.57;73.48
54194;BME280;40102;50.906;6.972;2023-03-20T00:11:34;101297.56;;;11.67;73.16
54194;BME280;40102;50.906;6.972;2023-03-20T00:14:08;101314.50;;;11.68;73.03
54194;BME280;40102;50.906;6.972;2023-03-20T00:16:37;101303.16;;;11.63;73.15
54194;BME280;40102;50.906;6.972;2023-03-20T00:19:03;101297.72;;;11.64;73.07
54194;BME280;40102;50.906;6.972;2023-03-20T00:21:30;101301.97;;;11.68;72.75
54194;BME280;40102;50.906;6.972;2023-03-20T00:23:56;101302.22;;;11.64;73.01
54194;BME280;40102;50.906;6.972;2023-03-20T00:26:25;101304.03;;;11.63;72.92
54194;BME280;40102;50.906;6.972;2023-03-20T00:28:52;101303.47;;;11.57;73.03
54194;BME280;40102;50.906;6.972;2023-03-20T00:31:31;101318.28;;;11.64;72.99
54194;BME280;40102;50.906;6.972;2023-03-20T00:34:00;101323.72;;;11.62;72.98
54194;BME280;40102;50.906;6.972;2023-03-20T00:36:26;101304.78;;;11.48;72.69
54194;BME280;40102;50.906;6.972;2023-03-20T00:38:52;101321.66;;;11.50;72.87
54194;BME280;40102;50.906;6.972;2023-03-20T00:41:35;101314.56;;;11.49;72.86
54194;BME280;40102;50.906;6.972;2023-03-20T00:44:21;101328.69;;;11.53;72.82
54194;BME280;40102;50.906;6.972;2023-03-20T00:46:53;101318.66;;;11.39;73.04
54194;BME280;40102;50.906;6.972;2023-03-20T00:49:23;101341.28;;;11.51;73.08
54194;BME280;40102;50.906;6.972;2023-03-20T00:51:49;101338.75;;;11.48;72.83
54194;BME280;40102;50.906;6.972;2023-03-20T00:54:15;101331.03;;;11.42;72.50
54194;BME280;40102;50.906;6.972;2023-03-20T00:56:49;101326.84;;;11.36;72.46
54194;BME280;40102;50.906;6.972;2023-03-20T00:59:19;101328.56;;;11.37;72.81
54194;BME280;40102;50.906;6.972;2023-03-20T01:01:46;101318.16;;;11.31;72.58
54194;BME280;40102;50.906;6.972;2023-03-20T01:04:14;101334.06;;;11.34;72.65
54194;BME280;40102;50.906;6.972;2023-03-20T01:06:40;101323.38;;;11.34;72.54
54194;BME280;40102;50.906;6.972;2023-03-20T01:09:06;101337.47;;;11.38;72.52
54194;BME280;40102;50.906;6.972;2023-03-20T01:11:31;101329.50;;;11.36;72.38
54194;BME280;40102;50.906;6.972;2023-03-20T01:13:57;101346.06;;;11.44;72.42
54194;BME280;40102;50.906;6.972;2023-03-20T01:16:24;101324.00;;;11.39;72.31
54194;BME280;40102;50.906;6.972;2023-03-20T01:18:50;101328.41;;;11.40;72.01
54194;BME280;40102;50.906;6.972;2023-03-20T01:21:17;101335.44;;;11.43;72.02
54194;BME280;40102;50.906;6.972;2023-03-20T01:23:43;101329.28;;;11.41;72.01
54194;BME280;40102;50.906;6.972;2023-03-20T01:26:21;101346.00;;;11.46;71.94
54194;BME280;40102;50.906;6.972;2023-03-20T01:28:49;101321.47;;;11.36;72.09
54194;BME280;40102;50.906;6.972;2023-03-20T01:31:17;101318.72;;;11.38;71.95
54194;BME280;40102;50.906;6.972;2023-03-20T01:33:43;101327.69;;;11.36;71.86
54194;BME280;40102;50.906;6.972;2023-03-20T01:36:11;101334.78;;;11.38;71.78
54194;BME280;40102;50.906;6.972;2023-03-20T01:38:37;101324.94;;;11.38;71.45
54194;BME280;40102;50.906;6.972;2023-03-20T01:41:06;101330.00;;;11.44;71.50
54194;BME280;40102;50.906;6.972;2023-03-20T01:43:33;101324.88;;;11.40;71.49
54194;BME280;40102;50.906;6.972;2023-03-20T01:46:02;101327.41;;;11.43;71.67
54194;BME280;40102;50.906;6.972;2023-03-20T01:48:59;101325.50;;;11.45;71.53
54194;BME280;40102;50.906;6.972;2023-03-20T01:51:29;101313.38;;;11.38;71.38
54194;BME280;40102;50.906;6.972;2023-03-20T01:56:30;101306.56;;;11.30;71.28
54194;BME280;40102;50.906;6.972;2023-03-20T01:59:01;101318.88;;;11.34;71.48
54194;BME280;40102;50.906;6.972;2023-03-20T02:01:29;101308.47;;;11.28;70.95
54194;BME280;40102;50.906;6.972;2023-03-20T02:03:55;101313.38;;;11.38;71.00
54194;BME280;40102;50.906;6.972;2023-03-20T02:06:22;101319.59;;;11.38;70.70
54194;BME280;40102;50.906;6.972;2023-03-20T02:08:51;101311.06;;;11.30;70.59
54194;BME280;40102;50.906;6.972;2023-03-20T02:11:19;101316.34;;;11.31;70.68
54194;BME280;40102;50.906;6.972;2023-03-20T02:13:46;101318.22;;;11.29;70.54
54194;BME280;40102;50.906;6.972;2023-03-20T02:16:15;101308.63;;;11.25;70.35
54194;BME280;40102;50.906;6.972;2023-03-20T02:18:43;101313.91;;;11.27;70.58
54194;BME280;40102;50.906;6.972;2023-03-20T02:24:29;101340.38;;;11.33;69.91
54194;BME280;40102;50.906;6.972;2023-03-20T02:41:14;101316.31;;;11.14;70.19
54194;BME280;40102;50.906;6.972;2023-03-20T02:43:56;101301.25;;;11.12;70.43
54194;BME280;40102;50.906;6.972;2023-03-20T02:46:59;101310.09;;;11.14;70.00
54194;BME280;40102;50.906;6.972;2023-03-20T02:52:19;101323.31;;;11.17;69.87
54194;BME280;40102;50.906;6.972;2023-03-20T02:55:13;101312.91;;;11.11;69.83
54194;BME280;40102;50.906;6.972;2023-03-20T02:57:56;101295.91;;;11.12;69.84
54194;BME280;40102;50.906;6.972;2023-03-20T03:00:32;101300.09;;;11.17;70.21
54194;BME280;40102;50.906;6.972;2023-03-20T03:03:07;101306.31;;;11.18;69.87
54194;BME280;40102;50.906;6.972;2023-03-20T03:05:39;101322.31;;;11.19;70.05
54194;BME280;40102;50.906;6.972;2023-03-20T03:08:08;101328.38;;;11.23;70.11
54194;BME280;40102;50.906;6.972;2023-03-20T03:10:41;101323.16;;;11.20;70.02
54194;BME280;40102;50.906;6.972;2023-03-20T03:13:14;101322.38;;;11.18;69.80
54194;BME280;40102;50.906;6.972;2023-03-20T03:15:44;101333.81;;;11.21;69.92
54194;BME280;40102;50.906;6.972;2023-03-20T03:18:13;101329.63;;;11.16;70.27
54194;BME280;40102;50.906;6.972;2023-03-20T03:20:41;101335.13;;;11.13;70.25
54194;BME280;40102;50.906;6.972;2023-03-20T03:23:17;101320.94;;;11.11;70.19
54194;BME280;40102;50.906;6.972;2023-03-20T03:25:45;101315.59;;;11.11;70.47
54194;BME280;40102;50.906;6.972;2023-03-20T03:28:22;101334.81;;;11.19;70.19
54194;BME280;40102;50.906;6.972;2023-03-20T03:30:50;101319.06;;;11.13;70.26
54194;BME280;40102;50.906;6.972;2023-03-20T03:33:29;101327.97;;;11.13;70.45
54194;BME280;40102;50.906;6.972;2023-03-20T03:36:12;101341.91;;;11.20;70.48
54194;BME280;40102;50.906;6.972;2023-03-20T03:38:58;101337.66;;;11.16;70.25
54194;BME280;40102;50.906;6.972;2023-03-20T03:41:30;101315.50;;;11.12;70.26
54194;BME280;40102;50.906;6.972;2023-03-20T03:46:57;101305.19;;;11.04;70.56
54194;BME280;40102;50.906;6.972;2023-03-20T03:49:40;101299.09;;;11.01;70.34
54194;BME280;40102;50.906;6.972;2023-03-20T03:52:11;101298.22;;;11.00;70.44
54194;BME280;40102;50.906;6.972;2023-03-20T03:57:12;101313.34;;;11.01;70.32
54194;BME280;40102;50.906;6.972;2023-03-20T03:59:42;101330.00;;;11.08;70.34
54194;BME280;40102;50.906;6.972;2023-03-20T04:02:10;101314.38;;;10.99;69.93
54194;BME280;40102;50.906;6.972;2023-03-20T04:04:41;101310.09;;;10.76;70.16
54194;BME280;40102;50.906;6.972;2023-03-20T04:07:07;101337.59;;;10.80;70.50
54194;BME280;40102;50.906;6.972;2023-03-20T04:09:32;101335.41;;;10.69;71.38
54194;BME280;40102;50.906;6.972;2023-03-20T04:11:58;101341.91;;;10.63;71.35
54194;BME280;40102;50.906;6.972;2023-03-20T04:14:24;101339.72;;;10.53;72.01
54194;BME280;40102;50.906;6.972;2023-03-20T04:16:49;101333.44;;;10.54;72.32
54194;BME280;40102;50.906;6.972;2023-03-20T04:19:15;101333.50;;;10.52;71.66
54194;BME280;40102;50.906;6.972;2023-03-20T04:21:41;101334.81;;;10.44;71.19
54194;BME280;40102;50.906;6.972;2023-03-20T04:24:06;101336.06;;;10.36;71.35
54194;BME280;40102;50.906;6.972;2023-03-20T04:26:31;101327.44;;;10.30;72.41
54194;BME280;40102;50.906;6.972;2023-03-20T04:28:57;101337.06;;;10.34;72.28
54194;BME280;40102;50.906;6.972;2023-03-20T04:31:22;101348.31;;;10.41;71.87
54194;BME280;40102;50.906;6.972;2023-03-20T04:33:48;101336.53;;;10.45;71.62
54194;BME280;40102;50.906;6.972;2023-03-20T04:36:14;101344.41;;;10.48;71.79
54194;BME280;40102;50.906;6.972;2023-03-20T04:38:39;101336.69;;;10.42;71.61
54194;BME280;40102;50.906;6.972;2023-03-20T04:41:05;101337.72;;;10.39;71.25
54194;BME280;40102;50.906;6.972;2023-03-20T04:43:31;101339.53;;;10.38;70.85
54194;BME280;40102;50.906;6.972;2023-03-20T04:45:56;101323.69;;;10.34;70.96
54194;BME280;40102;50.906;6.972;2023-03-20T04:48:22;101318.19;;;10.37;71.20
54194;BME280;40102;50.906;6.972;2023-03-20T04:50:47;101302.16;;;10.37;70.74
54194;BME280;40102;50.906;6.972;2023-03-20T04:53:15;101306.25;;;10.44;70.38
54194;BME280;40102;50.906;6.972;2023-03-20T04:55:41;101311.38;;;10.49;70.49
54194;BME280;40102;50.906;6.972;2023-03-20T04:58:06;101312.13;;;10.52;70.01
54194;BME280;40102;50.906;6.972;2023-03-20T05:00:32;101312.25;;;10.49;70.17
54194;BME280;40102;50.906;6.972;2023-03-20T05:02:58;101316.66;;;10.50;70.27
54194;BME280;40102;50.906;6.972;2023-03-20T05:05:23;101303.03;;;10.37;69.72
54194;BME280;40102;50.906;6.972;2023-03-20T05:07:50;101318.91;;;10.41;69.84
54194;BME280;40102;50.906;6.972;2023-03-20T05:10:16;101319.75;;;10.41;70.26
54194;BME280;40102;50.906;6.972;2023-03-20T05:12:41;101323.25;;;10.43;70.55
54194;BME280;40102;50.906;6.972;2023-03-20T05:15:07;101322.28;;;10.44;70.10
54194;BME280;40102;50.906;6.972;2023-03-20T05:17:33;101298.63;;;10.36;69.96
54194;BME280;40102;50.906;6.972;2023-03-20T05:19:58;101303.88;;;10.38;69.53
54194;BME280;40102;50.906;6.972;2023-03-20T05:22:24;101301.22;;;10.38;70.20
54194;BME280;40102;50.906;6.972;2023-03-20T05:24:49;101291.66;;;10.32;70.18
54194;BME280;40102;50.906;6.972;2023-03-20T05:27:14;101305.38;;;10.44;70.31
54194;BME280;40102;50.906;6.972;2023-03-20T05:29:40;101287.84;;;10.38;70.09
54194;BME280;40102;50.906;6.972;2023-03-20T05:32:05;101300.91;;;10.44;69.96
54194;BME280;40102;50.906;6.972;2023-03-20T05:34:31;101300.97;;;10.43;69.83
54194;BME280;40102;50.906;6.972;2023-03-20T05:36:56;101287.84;;;10.38;69.84
54194;BME280;40102;50.906;6.972;2023-03-20T05:39:21;101301.16;;;10.40;69.70
54194;BME280;40102;50.906;6.972;2023-03-20T05:41:47;101293.03;;;10.41;69.43
54194;BME280;40102;50.906;6.972;2023-03-20T05:44:12;101306.31;;;10.43;69.56
54194;BME280;40102;50.906;6.972;2023-03-20T05:46:38;101297.94;;;10.31;69.76
54194;BME280;40102;50.906;6.972;2023-03-20T05:49:03;101306.03;;;10.30;69.85
54194;BME280;40102;50.906;6.972;2023-03-20T05:51:28;101303.22;;;10.33;69.93
54194;BME280;40102;50.906;6.972;2023-03-20T05:53:54;101314.88;;;10.32;69.99
54194;BME280;40102;50.906;6.972;2023-03-20T05:56:19;101308.00;;;10.26;70.05
54194;BME280;40102;50.906;6.972;2023-03-20T05:58:45;101314.00;;;10.31;70.15
54194;BME280;40102;50.906;6.972;2023-03-20T06:01:10;101325.63;;;10.30;70.17
54194;BME280;40102;50.906;6.972;2023-03-20T06:03:35;101312.47;;;10.26;70.20
54194;BME280;40102;50.906;6.972;2023-03-20T06:06:02;101322.09;;;10.30;69.94
54194;BME280;40102;50.906;6.972;2023-03-20T06:08:27;101318.63;;;10.28;70.24
54194;BME280;40102;50.906;6.972;2023-03-20T06:10:54;101317.09;;;10.22;70.11
54194;BME280;40102;50.906;6.972;2023-03-20T06:13:20;101312.53;;;10.24;70.10
54194;BME280;40102;50.906;6.972;2023-03-20T06:15:45;101319.00;;;10.19;69.85
54194;BME280;40102;50.906;6.972;2023-03-20T06:18:10;101329.75;;;10.17;70.36
54194;BME280;40102;50.906;6.972;2023-03-20T06:20:39;101331.50;;;10.18;70.90
54194;BME280;40102;50.906;6.972;2023-03-20T06:23:04;101328.88;;;10.17;70.37
54194;BME280;40102;50.906;6.972;2023-03-20T06:25:30;101319.66;;;10.03;70.85
54194;BME280;40102;50.906;6.972;2023-03-20T06:27:55;101318.25;;;9.95;70.86
54194;BME280;40102;50.906;6.972;2023-03-20T06:30:22;101315.59;;;9.95;71.59
54194;BME280;40102;50.906;6.972;2023-03-20T06:32:47;101320.88;;;9.96;71.49
54194;BME280;40102;50.906;6.972;2023-03-20T06:35:12;101315.47;;;9.98;71.64
54194;BME280;40102;50.906;6.972;2023-03-20T06:37:38;101318.88;;;10.01;71.26
54194;BME280;40102;50.906;6.972;2023-03-20T06:40:05;101324.59;;;10.13;72.54
54194;BME280;40102;50.906;6.972;2023-03-20T06:42:30;101322.88;;;10.12;72.06
54194;BME280;40102;50.906;6.972;2023-03-20T06:44:56;101323.00;;;10.09;70.91
54194;BME280;40102;50.906;6.972;2023-03-20T06:47:22;101323.22;;;10.04;71.47
54194;BME280;40102;50.906;6.972;2023-03-20T06:49:47;101328.34;;;10.09;71.82
54194;BME280;40102;50.906;6.972;2023-03-20T06:52:17;101324.88;;;10.06;71.59
54194;BME280;40102;50.906;6.972;2023-03-20T06:54:43;101320.94;;;9.95;71.41
54194;BME280;40102;50.906;6.972;2023-03-20T06:57:09;101336.44;;;10.07;71.52
54194;BME280;40102;50.906;6.972;2023-03-20T06:59:34;101340.03;;;10.06;71.35
54194;BME280;40102;50.906;6.972;2023-03-20T07:02:01;101334.50;;;9.90;70.95
54194;BME280;40102;50.906;6.972;2023-03-20T07:04:26;101334.75;;;9.84;71.10
54194;BME280;40102;50.906;6.972;2023-03-20T07:06:51;101335.69;;;9.83;71.83
54194;BME280;40102;50.906;6.972;2023-03-20T07:09:17;101354.13;;;9.89;72.13
54194;BME280;40102;50.906;6.972;2023-03-20T07:11:42;101360.28;;;9.91;72.34
54194;BME280;40102;50.906;6.972;2023-03-20T07:14:09;101357.63;;;9.91;71.65
54194;BME280;40102;50.906;6.972;2023-03-20T07:16:34;101357.75;;;9.88;70.99
54194;BME280;40102;50.906;6.972;2023-03-20T07:19:00;101377.25;;;9.90;71.52
54194;BME280;40102;50.906;6.972;2023-03-20T07:21:29;101388.63;;;9.95;71.67
54194;BME280;40102;50.906;6.972;2023-03-20T07:23:54;101384.28;;;9.93;71.45
54194;BME280;40102;50.906;6.972;2023-03-20T07:26:35;101387.13;;;9.88;71.48
54194;BME280;40102;50.906;6.972;2023-03-20T07:29:00;101394.75;;;9.97;71.91
54194;BME280;40102;50.906;6.972;2023-03-20T07:31:27;101391.28;;;9.95;71.42
54194;BME280;40102;50.906;6.972;2023-03-20T07:33:56;101385.13;;;9.93;71.17
54194;BME280;40102;50.906;6.972;2023-03-20T07:36:21;101399.97;;;10.00;71.07
54194;BME280;40102;50.906;6.972;2023-03-20T07:38:47;101389.56;;;9.94;71.20
54194;BME280;40102;50.906;6.972;2023-03-20T07:41:12;101403.72;;;9.96;70.21
54194;BME280;40102;50.906;6.972;2023-03-20T07:43:38;101403.69;;;9.76;69.96
54194;BME280;40102;50.906;6.972;2023-03-20T07:46:04;101404.75;;;9.72;70.29
54194;BME280;40102;50.906;6.972;2023-03-20T07:48:30;101409.41;;;9.67;70.14
54194;BME280;40102;50.906;6.972;2023-03-20T07:50:56;101393.75;;;9.58;71.25
54194;BME280;40102;50.906;6.972;2023-03-20T07:53:24;101410.34;;;9.66;71.99
54194;BME280;40102;50.906;6.972;2023-03-20T07:55:49;101395.56;;;9.57;71.34
54194;BME280;40102;50.906;6.972;2023-03-20T07:58:15;101416.28;;;9.72;71.52
54194;BME280;40102;50.906;6.972;2023-03-20T08:00:42;101403.00;;;9.71;70.61
54194;BME280;40102;50.906;6.972;2023-03-20T08:03:07;101416.22;;;9.74;70.02
54194;BME280;40102;50.906;6.972;2023-03-20T08:05:33;101412.75;;;9.72;70.07
54194;BME280;40102;50.906;6.972;2023-03-20T08:07:58;101434.31;;;9.67;70.01
54194;BME280;40102;50.906;6.972;2023-03-20T08:10:24;101420.09;;;9.67;68.91
54194;BME280;40102;50.906;6.972;2023-03-20T08:12:49;101416.72;;;9.62;69.28
54194;BME280;40102;50.906;6.972;2023-03-20T08:15:15;101426.25;;;9.69;68.89
54194;BME280;40102;50.906;6.972;2023-03-20T08:17:44;101427.16;;;9.68;68.70
54194;BME280;40102;50.906;6.972;2023-03-20T08:20:11;101430.03;;;9.63;67.46
54194;BME280;40102;50.906;6.972;2023-03-20T08:22:37;101429.66;;;9.51;67.34
54194;BME280;40102;50.906;6.972;2023-03-20T08:25:03;101417.66;;;9.39;67.91
54194;BME280;40102;50.906;6.972;2023-03-20T08:27:28;101425.59;;;9.40;68.86
54194;BME280;40102;50.906;6.972;2023-03-20T08:29:55;101418.47;;;9.41;67.33
54194;BME280;40102;50.906;6.972;2023-03-20T08:32:20;101429.72;;;9.49;67.05
54194;BME280;40102;50.906;6.972;2023-03-20T08:34:46;101440.28;;;9.52;67.22
54194;BME280;40102;50.906;6.972;2023-03-20T08:37:11;101432.19;;;9.54;67.07
54194;BME280;40102;50.906;6.972;2023-03-20T08:39:38;101420.72;;;9.52;67.97
54194;BME280;40102;50.906;6.972;2023-03-20T08:42:04;101434.38;;;9.66;67.85
54194;BME280;40102;50.906;6.972;2023-03-20T08:44:30;101428.09;;;9.67;67.29
54194;BME280;40102;50.906;6.972;2023-03-20T08:46:55;101425.44;;;9.67;66.67
54194;BME280;40102;50.906;6.972;2023-03-20T08:49:21;101424.50;;;9.68;67.12
54194;BME280;40102;50.906;6.972;2023-03-20T08:51:46;101436.53;;;9.78;66.82
54194;BME280;40102;50.906;6.972;2023-03-20T08:54:11;101421.69;;;9.71;66.73
54194;BME280;40102;50.906;6.972;2023-03-20T08:56:39;101439.91;;;9.83;66.03
54194;BME280;40102;50.906;6.972;2023-03-20T08:59:04;101444.38;;;9.83;64.02
54194;BME280;40102;50.906;6.972;2023-03-20T09:01:30;101431.44;;;9.72;64.40
54194;BME280;40102;50.906;6.972;2023-03-20T09:03:55;101427.72;;;9.76;65.40
54194;BME280;40102;50.906;6.972;2023-03-20T09:06:20;101432.94;;;9.79;65.15
54194;BME280;40102;50.906;6.972;2023-03-20T09:08:46;101432.69;;;9.85;64.36
54194;BME280;40102;50.906;6.972;2023-03-20T09:11:11;101428.41;;;9.81;64.08
54194;BME280;40102;50.906;6.972;2023-03-20T09:13:37;101437.28;;;9.82;63.92
54194;BME280;40102;50.906;6.972;2023-03-20T09:16:02;101441.81;;;9.80;64.17
54194;BME280;40102;50.906;6.972;2023-03-20T09:18:27;101441.09;;;9.76;64.36
54194;BME280;40102;50.906;6.972;2023-03-20T09:20:53;101426.38;;;9.66;64.41
54194;BME280;40102;50.906;6.972;2023-03-20T09:23:20;101419.28;;;9.65;64.53
54194;BME280;40102;50.906;6.972;2023-03-20T09:25:46;101441.09;;;9.76;65.23
54194;BME280;40102;50.906;6.972;2023-03-20T09:28:11;101427.09;;;9.69;63.88
54194;BME280;40102;50.906;6.972;2023-03-20T09:30:37;101436.13;;;9.67;64.91
54194;BME280;40102;50.906;6.972;2023-03-20T09:33:02;101435.31;;;9.65;63.88
54194;BME280;40102;50.906;6.972;2023-03-20T09:35:27;101430.72;;;9.68;65.59
54194;BME280;40102;50.906;6.972;2023-03-20T09:37:53;101429.72;;;9.71;65.74
54194;BME280;40102;50.906;6.972;2023-03-20T09:40:24;101427.84;;;9.73;64.84
54194;BME280;40102;50.906;6.972;2023-03-20T09:45:50;101424.00;;;9.80;65.35
54194;BME280;40102;50.906;6.972;2023-03-20T09:48:24;101438.78;;;9.89;63.99
54194;BME280;40102;50.906;6.972;2023-03-20T09:53:56;101426.41;;;9.86;63.85
54194;BME280;40102;50.906;6.972;2023-03-20T09:56:25;101425.66;;;9.83;63.26
54194;BME280;40102;50.906;6.972;2023-03-20T09:58:55;101414.19;;;9.81;64.17
54194;BME280;40102;50.906;6.972;2023-03-20T10:01:23;101422.69;;;9.90;64.55
54194;BME280;40102;50.906;6.972;2023-03-20T10:04:00;101433.91;;;9.98;64.84
54194;BME280;40102;50.906;6.972;2023-03-20T10:06:33;101433.00;;;9.99;64.57
54194;BME280;40102;50.906;6.972;2023-03-20T10:08:58;101440.00;;;10.02;63.61
54194;BME280;40102;50.906;6.972;2023-03-20T10:14:23;101437.53;;;9.97;63.64
54194;BME280;40102;50.906;6.972;2023-03-20T10:19:50;101432.38;;;9.93;63.80
54194;BME280;40102;50.906;6.972;2023-03-20T10:22:24;101426.16;;;9.92;64.16
54194;BME280;40102;50.906;6.972;2023-03-20T10:24:55;101432.31;;;9.94;64.22
54194;BME280;40102;50.906;6.972;2023-03-20T10:27:25;101430.25;;;10.01;62.64
54194;BME280;40102;50.906;6.972;2023-03-20T10:35:52;101432.53;;;10.10;63.61
54194;BME280;40102;50.906;6.972;2023-03-20T10:40:55;101423.28;;;9.97;62.56
54194;BME280;40102;50.906;6.972;2023-03-20T10:43:33;101438.13;;;10.04;63.11
54194;BME280;40102;50.906;6.972;2023-03-20T10:46:04;101426.72;;;10.00;62.55
54194;BME280;40102;50.906;6.972;2023-03-20T10:49:02;101436.28;;;10.06;58.54
54194;BME280;40102;50.906;6.972;2023-03-20T10:51:47;101421.63;;;9.94;57.32
54194;BME280;40102;50.906;6.972;2023-03-20T10:54:26;101428.63;;;9.97;58.41
54194;BME280;40102;50.906;6.972;2023-03-20T10:56:56;101429.63;;;9.94;58.72
54194;BME280;40102;50.906;6.972;2023-03-20T10:59:40;101429.63;;;9.94;56.05
54194;BME280;40102;50.906;6.972;2023-03-20T11:02:10;101430.69;;;9.90;56.38
54194;BME280;40102;50.906;6.972;2023-03-20T11:04:36;101421.19;;;9.83;54.99
54194;BME280;40102;50.906;6.972;2023-03-20T11:09:36;101404.28;;;9.83;55.96
54194;BME280;40102;50.906;6.972;2023-03-20T11:12:02;101412.31;;;9.83;55.89
54194;BME280;40102;50.906;6.972;2023-03-20T11:14:34;101423.34;;;9.95;54.63
54194;BME280;40102;50.906;6.972;2023-03-20T11:17:01;101404.22;;;9.84;57.98
54194;BME280;40102;50.906;6.972;2023-03-20T11:22:22;101408.06;;;9.99;56.89
54194;BME280;40102;50.906;6.972;2023-03-20T11:24:56;101418.50;;;10.05;57.41
54194;BME280;40102;50.906;6.972;2023-03-20T11:27:31;101406.06;;;10.04;56.70
54194;BME280;40102;50.906;6.972;2023-03-20T11:29:59;101396.44;;;10.00;57.03
54194;BME280;40102;50.906;6.972;2023-03-20T11:32:30;101394.84;;;9.96;57.88
54194;BME280;40102;50.906;6.972;2023-03-20T11:34:57;101380.84;;;9.89;55.29
54194;BME280;40102;50.906;6.972;2023-03-20T11:37:34;101389.19;;;9.82;55.57
54194;BME280;40102;50.906;6.972;2023-03-20T11:40:13;101385.53;;;9.84;55.51
54194;BME280;40102;50.906;6.972;2023-03-20T11:42:51;101383.66;;;9.86;55.79
54194;BME280;40102;50.906;6.972;2023-03-20T11:45:17;101382.06;;;9.82;55.28
54194;BME280;40102;50.906;6.972;2023-03-20T11:47:42;101378.84;;;9.74;56.44
54194;BME280;40102;50.906;6.972;2023-03-20T11:50:34;101383.31;;;9.73;55.62
54194;BME280;40102;50.906;6.972;2023-03-20T11:53:01;101376.34;;;9.69;56.35
54194;BME280;40102;50.906;6.972;2023-03-20T11:55:30;101372.69;;;9.72;55.98
54194;BME280;40102;50.906;6.972;2023-03-20T11:58:01;101376.91;;;9.78;58.53
54194;BME280;40102;50.906;6.972;2023-03-20T12:00:34;101382.78;;;9.86;58.22
54194;BME280;40102;50.906;6.972;2023-03-20T12:03:00;101373.09;;;9.83;57.84
54194;BME280;40102;50.906;6.972;2023-03-20T12:05:31;101378.78;;;9.96;56.52
54194;BME280;40102;50.906;6.972;2023-03-20T12:08:00;101370.09;;;9.91;57.42
54194;BME280;40102;50.906;6.972;2023-03-20T12:10:37;101356.81;;;9.89;57.29
54194;BME280;40102;50.906;6.972;2023-03-20T12:13:14;101360.22;;;9.93;57.00
54194;BME280;40102;50.906;6.972;2023-03-20T12:15:44;101361.97;;;9.94;56.44
54194;BME280;40102;50.906;6.972;2023-03-20T12:21:02;101366.91;;;10.03;57.50
54194;BME280;40102;50.906;6.972;2023-03-20T12:23:52;101354.81;;;9.94;56.99
54194;BME280;40102;50.906;6.972;2023-03-20T12:26:23;101364.31;;;10.01;57.04
54194;BME280;40102;50.906;6.972;2023-03-20T12:28:57;101359.75;;;10.03;57.74
54194;BME280;40102;50.906;6.972;2023-03-20T12:31:29;101366.72;;;10.07;57.08
54194;BME280;40102;50.906;6.972;2023-03-20T12:34:32;101350.28;;;9.96;57.05
54194;BME280;40102;50.906;6.972;2023-03-20T12:36:59;101363.38;;;10.02;55.96
54194;BME280;40102;50.906;6.972;2023-03-20T12:39:31;101346.06;;;9.91;56.74
54194;BME280;40102;50.906;6.972;2023-03-20T12:42:12;101358.22;;;9.98;57.59
54194;BME280;40102;50.906;6.972;2023-03-20T12:44:54;101349.53;;;9.93;57.81
54194;BME280;40102;50.906;6.972;2023-03-20T13:01:03;101320.34;;;10.09;59.69
54194;BME280;40102;50.906;6.972;2023-03-20T13:06:49;101337.53;;;10.23;59.93
54194;BME280;40102;50.906;6.972;2023-03-20T13:17:18;101333.72;;;10.29;59.62
54194;BME280;40102;50.906;6.972;2023-03-20T13:36:55;101309.22;;;10.18;59.11
54194;BME280;40102;50.906;6.972;2023-03-20T13:39:27;101308.19;;;10.22;59.43
54194;BME280;40102;50.906;6.972;2023-03-20T13:41:56;101308.84;;;10.27;59.33
54194;BME280;40102;50.906;6.972;2023-03-20T13:44:28;101306.84;;;10.32;59.14
54194;BME280;40102;50.906;6.972;2023-03-20T13:47:01;101292.59;;;10.31;58.96
54194;BME280;40102;50.906;6.972;2023-03-20T13:49:51;101299.47;;;10.37;59.05
54194;BME280;40102;50.906;6.972;2023-03-20T13:53:05;101283.94;;;10.26;58.91
54194;BME280;40102;50.906;6.972;2023-03-20T13:55:39;101293.25;;;10.16;59.31
54194;BME280;40102;50.906;6.972;2023-03-20T14:03:47;101285.59;;;10.29;59.20
54194;BME280;40102;50.906;6.972;2023-03-20T14:06:43;101274.81;;;10.30;58.91
54194;BME280;40102;50.906;6.972;2023-03-20T14:09:28;101281.56;;;10.39;59.36
54194;BME280;40102;50.906;6.972;2023-03-20T14:12:02;101273.69;;;10.36;58.62
54194;BME280;40102;50.906;6.972;2023-03-20T14:14:39;101276.34;;;10.36;58.88
54194;BME280;40102;50.906;6.972;2023-03-20T14:17:18;101287.31;;;10.49;58.17
54194;BME280;40102;50.906;6.972;2023-03-20T14:19:45;101277.50;;;10.49;57.82
54194;BME280;40102;50.906;6.972;2023-03-20T14:22:19;101275.03;;;10.45;58.16
54194;BME280;40102;50.906;6.972;2023-03-20T14:25:02;101274.81;;;10.49;58.45
54194;BME280;40102;50.906;6.972;2023-03-20T14:27:34;101268.00;;;10.42;59.15
54194;BME280;40102;50.906;6.972;2023-03-20T14:36:11;101278.44;;;10.48;59.08
54194;BME280;40102;50.906;6.972;2023-03-20T14:41:18;101271.72;;;10.58;59.08
54194;BME280;40102;50.906;6.972;2023-03-20T14:49:18;101268.31;;;10.36;60.02
54194;BME280;40102;50.906;6.972;2023-03-20T14:51:49;101256.84;;;10.34;60.20
54194;BME280;40102;50.906;6.972;2023-03-20T14:56:49;101259.00;;;10.26;60.16
54194;BME280;40102;50.906;6.972;2023-03-20T14:59:16;101246.72;;;10.22;60.62
54194;BME280;40102;50.906;6.972;2023-03-20T15:01:43;101254.50;;;10.26;60.84
54194;BME280;40102;50.906;6.972;2023-03-20T15:06:47;101234.38;;;10.18;60.73
54194;BME280;40102;50.906;6.972;2023-03-20T15:09:14;101240.59;;;10.18;60.75
54194;BME280;40102;50.906;6.972;2023-03-20T15:11:41;101254.38;;;10.29;60.94
54194;BME280;40102;50.906;6.972;2023-03-20T15:14:08;101246.28;;;10.31;60.99